sensor_id;sensor_type;location;lat;lon;timestamp;pressure;altitude;pressure_sealevel;temperature;humidity
12793;BME280;6460;42.684;23.260;2023-06-22T05:39:34;95046.41;;;22.34;86.46
12793;BME280;6460;42.684;23.260;2023-06-22T05:42:05;95049.09;;;22.38;86.85
12793;BME280;6460;42.684;23.260;2023-06-22T05:44:32;95056.47;;;22.41;86.71
12793;BME280;6460;42.684;23.260;2023-06-22T05:47:00;95058.81;;;22.42;88.61
12793;BME280;6460;42.684;23.260;2023-06-22T05:49:28;95060.72;;;22.65;88.41
12793;BME280;6460;42.684;23.260;2023-06-22T05:51:58;95066.72;;;22.80;86.18
12793;BME280;6460;42.684;23.260;2023-06-22T05:54:26;95066.72;;;22.80;86.47
12793;BME280;6460;42.684;23.260;2023-06-22T05:56:55;95067.91;;;22.98;84.29
12793;BME280;6460;42.684;23.260;2023-06-22T05:59:23;95064.38;;;23.17;84.12
12793;BME280;6460;42.684;23.260;2023-06-22T06:01:50;95060.81;;;23.37;83.14
12793;BME280;6460;42.684;23.260;2023-06-22T06:04:17;95055.31;;;23.37;82.37
12793;BME280;6460;42.684;23.260;2023-06-22T06:06:45;95064.47;;;23.50;82.45
12793;BME280;6460;42.684;23.260;2023-06-22T06:09:14;95056.97;;;23.70;80.42
12793;BME280;6460;42.684;23.260;2023-06-22T06:11:41;95052.75;;;23.82;81.25
12793;BME280;6460;42.684;23.260;2023-06-22T06:14:11;95047.72;;;23.96;80.03
12793;BME280;6460;42.684;23.260;2023-06-22T06:16:38;95047.34;;;23.94;78.60
12793;BME280;6460;42.684;23.260;2023-06-22T06:19:05;95042.00;;;24.03;78.39
12793;BME280;6460;42.684;23.260;2023-06-22T06:21:33;95048.19;;;23.75;81.09
12793;BME280;6460;42.684;23.260;2023-06-22T06:24:00;95042.09;;;24.32;77.65
12793;BME280;6460;42.684;23.260;2023-06-22T06:26:28;95034.13;;;24.38;76.24
12793;BME280;6460;42.684;23.260;2023-06-22T06:28:59;95040.91;;;24.62;75.27
12793;BME280;6460;42.684;23.260;2023-06-22T06:31:29;95046.75;;;24.64;73.70
12793;BME280;6460;42.684;23.260;2023-06-22T06:33:56;95045.88;;;24.67;74.96
12793;BME280;6460;42.684;23.260;2023-06-22T06:36:23;95041.53;;;25.23;73.35
12793;BME280;6460;42.684;23.260;2023-06-22T06:38:50;95037.25;;;25.48;72.36
12793;BME280;6460;42.684;23.260;2023-06-22T06:41:17;95035.88;;;25.68;70.92
12793;BME280;6460;42.684;23.260;2023-06-22T06:43:45;95033.13;;;25.56;72.05
12793;BME280;6460;42.684;23.260;2023-06-22T06:46:12;95037.50;;;25.66;71.31
12793;BME280;6460;42.684;23.260;2023-06-22T06:48:41;95030.09;;;25.88;70.29
12793;BME280;6460;42.684;23.260;2023-06-22T06:51:08;95031.19;;;26.03;70.49
12793;BME280;6460;42.684;23.260;2023-06-22T06:53:37;95020.06;;;26.19;70.48
12793;BME280;6460;42.684;23.260;2023-06-22T06:56:05;95015.50;;;26.60;68.93
12793;BME280;6460;42.684;23.260;2023-06-22T06:58:32;95017.50;;;26.81;66.56
12793;BME280;6460;42.684;23.260;2023-06-22T07:01:00;95025.28;;;26.39;67.67
12793;BME280;6460;42.684;23.260;2023-06-22T07:03:27;95016.88;;;26.99;65.67
12793;BME280;6460;42.684;23.260;2023-06-22T07:05:56;95018.53;;;27.49;65.63
12793;BME280;6460;42.684;23.260;2023-06-22T07:08:23;95010.84;;;27.83;64.56
12793;BME280;6460;42.684;23.260;2023-06-22T07:10:52;95010.47;;;28.12;61.51
12793;BME280;6460;42.684;23.260;2023-06-22T07:13:19;95006.50;;;28.31;60.07
12793;BME280;6460;42.684;23.260;2023-06-22T07:15:46;95007.94;;;27.96;58.77
12793;BME280;6460;42.684;23.260;2023-06-22T07:18:14;95014.72;;;28.04;59.12
12793;BME280;6460;42.684;23.260;2023-06-22T07:20:41;95010.47;;;28.12;60.86
12793;BME280;6460;42.684;23.260;2023-06-22T07:23:10;95018.69;;;27.94;58.89
12793;BME280;6460;42.684;23.260;2023-06-22T07:25:37;95018.03;;;27.72;60.61
12793;BME280;6460;42.684;23.260;2023-06-22T07:28:06;95019.38;;;28.07;59.40
12793;BME280;6460;42.684;23.260;2023-06-22T07:30:34;95022.16;;;28.25;58.86
12793;BME280;6460;42.684;23.260;2023-06-22T07:33:01;95017.25;;;28.38;58.92
12793;BME280;6460;42.684;23.260;2023-06-22T07:35:29;95020.94;;;28.63;59.03
12793;BME280;6460;42.684;23.260;2023-06-22T07:37:57;95019.47;;;27.95;61.85
12793;BME280;6460;42.684;23.260;2023-06-22T07:40:26;95029.81;;;28.21;61.19
12793;BME280;6460;42.684;23.260;2023-06-22T07:42:53;95020.00;;;28.20;61.03
12793;BME280;6460;42.684;23.260;2023-06-22T07:45:20;95021.09;;;28.32;61.97
12793;BME280;6460;42.684;23.260;2023-06-22T07:47:48;95020.03;;;28.29;62.33
12793;BME280;6460;42.684;23.260;2023-06-22T07:50:15;95032.13;;;27.74;62.39
12793;BME280;6460;42.684;23.260;2023-06-22T07:52:42;95027.00;;;27.94;63.62
12793;BME280;6460;42.684;23.260;2023-06-22T07:55:10;95022.50;;;27.88;62.91
12793;BME280;6460;42.684;23.260;2023-06-22T07:57:39;95021.22;;;28.10;61.80
12793;BME280;6460;42.684;23.260;2023-06-22T08:00:08;95026.97;;;27.85;63.93
12793;BME280;6460;42.684;23.260;2023-06-22T08:02:40;95015.88;;;27.76;63.92
12793;BME280;6460;42.684;23.260;2023-06-22T08:05:08;95017.75;;;27.88;62.98
12793;BME280;6460;42.684;23.260;2023-06-22T08:07:35;95008.31;;;28.07;62.62
12793;BME280;6460;42.684;23.260;2023-06-22T08:10:04;95006.09;;;27.93;63.72
12793;BME280;6460;42.684;23.260;2023-06-22T08:12:31;95000.06;;;27.76;64.81
12793;BME280;6460;42.684;23.260;2023-06-22T08:15:00;95017.16;;;28.02;64.76
12793;BME280;6460;42.684;23.260;2023-06-22T08:17:27;95006.59;;;28.01;63.98
12793;BME280;6460;42.684;23.260;2023-06-22T08:19:54;95007.75;;;28.58;62.69
12793;BME280;6460;42.684;23.260;2023-06-22T08:22:21;94998.25;;;28.68;61.66
12793;BME280;6460;42.684;23.260;2023-06-22T08:24:49;94998.25;;;28.68;65.04
12793;BME280;6460;42.684;23.260;2023-06-22T08:27:16;94993.00;;;28.61;62.97
12793;BME280;6460;42.684;23.260;2023-06-22T08:29:46;94992.97;;;29.06;60.66
12793;BME280;6460;42.684;23.260;2023-06-22T08:32:16;94990.47;;;29.08;59.41
12793;BME280;6460;42.684;23.260;2023-06-22T08:34:43;95000.34;;;29.00;59.72
12793;BME280;6460;42.684;23.260;2023-06-22T08:37:11;94998.59;;;29.30;59.79
12793;BME280;6460;42.684;23.260;2023-06-22T08:39:38;94996.31;;;29.28;57.77
12793;BME280;6460;42.684;23.260;2023-06-22T08:42:06;95004.88;;;29.39;57.91
12793;BME280;6460;42.684;23.260;2023-06-22T08:44:34;95009.06;;;29.68;55.54
12793;BME280;6460;42.684;23.260;2023-06-22T08:47:01;95000.53;;;29.80;54.06
12793;BME280;6460;42.684;23.260;2023-06-22T08:49:30;94996.47;;;30.00;57.48
12793;BME280;6460;42.684;23.260;2023-06-22T08:51:58;94994.13;;;30.31;56.17
12793;BME280;6460;42.684;23.260;2023-06-22T08:54:25;94983.88;;;30.61;55.83
12793;BME280;6460;42.684;23.260;2023-06-22T08:56:52;94993.38;;;30.69;54.45
12793;BME280;6460;42.684;23.260;2023-06-22T08:59:19;94972.63;;;30.79;52.41
12793;BME280;6460;42.684;23.260;2023-06-22T09:01:46;94974.00;;;30.98;53.04
12793;BME280;6460;42.684;23.260;2023-06-22T09:04:14;94974.94;;;31.24;54.14
12793;BME280;6460;42.684;23.260;2023-06-22T09:06:43;94966.50;;;31.48;52.91
12793;BME280;6460;42.684;23.260;2023-06-22T09:09:12;94966.28;;;31.66;50.45
12793;BME280;6460;42.684;23.260;2023-06-22T09:11:40;94973.91;;;31.86;48.97
12793;BME280;6460;42.684;23.260;2023-06-22T09:14:08;94972.94;;;31.54;46.10
12793;BME280;6460;42.684;23.260;2023-06-22T09:16:36;94972.47;;;31.26;46.34
12793;BME280;6460;42.684;23.260;2023-06-22T09:19:04;94972.53;;;31.46;48.69
12793;BME280;6460;42.684;23.260;2023-06-22T09:21:32;94979.34;;;31.45;47.68
12793;BME280;6460;42.684;23.260;2023-06-22T09:24:03;94974.19;;;31.09;42.98
12793;BME280;6460;42.684;23.260;2023-06-22T09:26:31;94972.38;;;31.06;45.33
12793;BME280;6460;42.684;23.260;2023-06-22T09:28:59;94976.56;;;31.31;41.98
12793;BME280;6460;42.684;23.260;2023-06-22T09:31:26;94973.69;;;31.55;41.51
12793;BME280;6460;42.684;23.260;2023-06-22T09:33:54;94991.97;;;31.76;42.92
12793;BME280;6460;42.684;23.260;2023-06-22T09:36:22;94992.19;;;31.28;42.36
12793;BME280;6460;42.684;23.260;2023-06-22T09:38:49;94982.25;;;31.36;41.01
12793;BME280;6460;42.684;23.260;2023-06-22T09:41:22;94983.75;;;31.08;41.50
12793;BME280;6460;42.684;23.260;2023-06-22T09:43:49;94981.47;;;31.51;41.81
12793;BME280;6460;42.684;23.260;2023-06-22T09:46:17;94978.75;;;31.56;38.77
12793;BME280;6460;42.684;23.260;2023-06-22T09:48:47;94984.81;;;31.55;39.31
12793;BME280;6460;42.684;23.260;2023-06-22T09:51:14;94980.00;;;31.40;38.44
12793;BME280;6460;42.684;23.260;2023-06-22T09:53:42;94970.03;;;31.48;37.17
12793;BME280;6460;42.684;23.260;2023-06-22T09:56:09;94960.47;;;31.64;36.56
12793;BME280;6460;42.684;23.260;2023-06-22T09:58:42;94965.28;;;31.05;36.78
12793;BME280;6460;42.684;23.260;2023-06-22T10:01:09;94969.81;;;31.17;38.24
12793;BME280;6460;42.684;23.260;2023-06-22T10:03:36;94969.50;;;31.94;37.81
12793;BME280;6460;42.684;23.260;2023-06-22T10:06:04;94963.03;;;32.43;37.82
12793;BME280;6460;42.684;23.260;2023-06-22T10:08:31;94959.13;;;33.01;36.83
12793;BME280;6460;42.684;23.260;2023-06-22T10:10:58;94958.25;;;33.41;37.70
12793;BME280;6460;42.684;23.260;2023-06-22T10:13:25;94955.69;;;33.69;36.75
12793;BME280;6460;42.684;23.260;2023-06-22T10:15:54;94959.91;;;33.01;36.79
12793;BME280;6460;42.684;23.260;2023-06-22T10:18:21;94952.44;;;33.44;38.34
12793;BME280;6460;42.684;23.260;2023-06-22T10:20:50;94955.13;;;34.01;36.91
12793;BME280;6460;42.684;23.260;2023-06-22T10:23:18;94952.34;;;33.33;34.49
12793;BME280;6460;42.684;23.260;2023-06-22T10:25:46;94953.56;;;33.01;36.41
12793;BME280;6460;42.684;23.260;2023-06-22T10:28:14;94948.59;;;33.42;36.29
12793;BME280;6460;42.684;23.260;2023-06-22T10:30:41;94951.53;;;33.27;37.79
12793;BME280;6460;42.684;23.260;2023-06-22T10:33:11;94946.03;;;32.81;38.46
12793;BME280;6460;42.684;23.260;2023-06-22T10:35:39;94948.53;;;32.79;35.94
12793;BME280;6460;42.684;23.260;2023-06-22T10:38:06;94943.06;;;32.65;35.91
12793;BME280;6460;42.684;23.260;2023-06-22T10:40:34;94938.06;;;32.69;36.04
12793;BME280;6460;42.684;23.260;2023-06-22T10:43:01;94930.56;;;32.80;37.16
12793;BME280;6460;42.684;23.260;2023-06-22T10:45:28;94945.03;;;32.38;36.69
12793;BME280;6460;42.684;23.260;2023-06-22T10:47:55;94947.13;;;32.43;34.76
12793;BME280;6460;42.684;23.260;2023-06-22T10:50:24;94941.13;;;32.10;37.60
12793;BME280;6460;42.684;23.260;2023-06-22T10:52:53;94926.78;;;31.77;38.43
12793;BME280;6460;42.684;23.260;2023-06-22T10:55:20;94936.41;;;32.36;35.96
12793;BME280;6460;42.684;23.260;2023-06-22T10:57:47;94934.63;;;32.13;36.01
12793;BME280;6460;42.684;23.260;2023-06-22T11:00:16;94938.59;;;32.73;34.60
12793;BME280;6460;42.684;23.260;2023-06-22T11:02:43;94924.66;;;33.24;36.69
12793;BME280;6460;42.684;23.260;2023-06-22T11:05:10;94926.88;;;32.63;36.60
12793;BME280;6460;42.684;23.260;2023-06-22T11:07:41;94923.59;;;32.44;36.53
12793;BME280;6460;42.684;23.260;2023-06-22T11:10:09;94925.63;;;33.52;34.55
12793;BME280;6460;42.684;23.260;2023-06-22T11:12:36;94924.28;;;33.74;34.84
12793;BME280;6460;42.684;23.260;2023-06-22T11:15:04;94920.94;;;34.12;33.65
12793;BME280;6460;42.684;23.260;2023-06-22T11:17:32;94919.81;;;33.93;32.96
12793;BME280;6460;42.684;23.260;2023-06-22T11:19:59;94916.78;;;33.23;34.51
12793;BME280;6460;42.684;23.260;2023-06-22T11:22:26;94911.84;;;34.17;35.69
12793;BME280;6460;42.684;23.260;2023-06-22T11:24:55;94911.94;;;34.45;32.49
12793;BME280;6460;42.684;23.260;2023-06-22T11:27:22;94908.75;;;34.74;33.24
12793;BME280;6460;42.684;23.260;2023-06-22T11:29:49;94912.84;;;34.90;33.87
12793;BME280;6460;42.684;23.260;2023-06-22T11:32:18;94910.63;;;34.35;33.50
12793;BME280;6460;42.684;23.260;2023-06-22T11:34:45;94904.03;;;33.79;33.63
12793;BME280;6460;42.684;23.260;2023-06-22T11:37:13;94902.16;;;33.65;33.16
12793;BME280;6460;42.684;23.260;2023-06-22T11:39:41;94902.19;;;33.02;33.55
12793;BME280;6460;42.684;23.260;2023-06-22T11:42:10;94904.09;;;32.90;34.06
12793;BME280;6460;42.684;23.260;2023-06-22T11:44:37;94903.84;;;33.20;34.35
12793;BME280;6460;42.684;23.260;2023-06-22T11:47:06;94914.53;;;32.70;40.43
12793;BME280;6460;42.684;23.260;2023-06-22T11:49:33;94904.56;;;32.37;42.74
12793;BME280;6460;42.684;23.260;2023-06-22T11:52:00;94897.16;;;31.24;46.18
12793;BME280;6460;42.684;23.260;2023-06-22T11:54:28;94900.28;;;30.97;45.82
12793;BME280;6460;42.684;23.260;2023-06-22T11:56:55;94900.63;;;30.61;50.44
12793;BME280;6460;42.684;23.260;2023-06-22T11:59:23;94911.00;;;30.36;50.17
12793;BME280;6460;42.684;23.260;2023-06-22T12:01:50;94915.78;;;29.98;51.08
12793;BME280;6460;42.684;23.260;2023-06-22T12:04:18;94911.34;;;30.15;52.15
12793;BME280;6460;42.684;23.260;2023-06-22T12:06:45;94921.19;;;30.16;49.20
12793;BME280;6460;42.684;23.260;2023-06-22T12:09:13;94917.75;;;29.82;53.44
12793;BME280;6460;42.684;23.260;2023-06-22T12:11:40;94913.47;;;29.39;53.30
12793;BME280;6460;42.684;23.260;2023-06-22T12:14:08;94921.13;;;29.54;52.53
12793;BME280;6460;42.684;23.260;2023-06-22T12:16:36;94934.78;;;29.15;50.58
12793;BME280;6460;42.684;23.260;2023-06-22T12:19:04;94941.22;;;28.43;53.70
12793;BME280;6460;42.684;23.260;2023-06-22T12:21:31;94951.50;;;28.52;54.88
12793;BME280;6460;42.684;23.260;2023-06-22T12:23:58;94955.72;;;27.89;61.02
12793;BME280;6460;42.684;23.260;2023-06-22T12:26:25;94963.09;;;27.34;68.15
12793;BME280;6460;42.684;23.260;2023-06-22T12:28:53;94958.88;;;27.20;71.76
12793;BME280;6460;42.684;23.260;2023-06-22T12:31:20;94963.47;;;26.27;80.93
12793;BME280;6460;42.684;23.260;2023-06-22T12:33:49;94968.00;;;24.99;84.98
12793;BME280;6460;42.684;23.260;2023-06-22T12:36:16;94960.34;;;23.27;94.63
12793;BME280;6460;42.684;23.260;2023-06-22T12:38:43;94944.34;;;22.89;88.50
12793;BME280;6460;42.684;23.260;2023-06-22T12:41:10;94922.13;;;23.19;84.64
12793;BME280;6460;42.684;23.260;2023-06-22T12:43:37;94953.47;;;22.27;99.06
12793;BME280;6460;42.684;23.260;2023-06-22T12:46:05;94934.28;;;22.07;100.00
12793;BME280;6460;42.684;23.260;2023-06-22T12:48:32;94946.16;;;22.21;100.00
12793;BME280;6460;42.684;23.260;2023-06-22T12:51:01;94953.22;;;22.38;100.00
12793;BME280;6460;42.684;23.260;2023-06-22T12:53:28;94954.59;;;22.85;99.07
12793;BME280;6460;42.684;23.260;2023-06-22T12:55:55;94953.47;;;23.02;100.00
12793;BME280;6460;42.684;23.260;2023-06-22T12:58:22;94964.53;;;23.31;100.00
12793;BME280;6460;42.684;23.260;2023-06-22T13:00:49;94968.63;;;23.23;100.00
12793;BME280;6460;42.684;23.260;2023-06-22T13:03:17;94973.88;;;23.34;100.00
12793;BME280;6460;42.684;23.260;2023-06-22T13:05:44;94974.38;;;23.12;100.00
12793;BME280;6460;42.684;23.260;2023-06-22T13:08:13;94958.75;;;23.45;100.00
12793;BME280;6460;42.684;23.260;2023-06-22T13:10:40;94961.16;;;23.59;100.00
12793;BME280;6460;42.684;23.260;2023-06-22T13:13:08;94974.41;;;23.93;98.93
12793;BME280;6460;42.684;23.260;2023-06-22T13:15:35;94972.69;;;24.15;100.00
12793;BME280;6460;42.684;23.260;2023-06-22T13:18:02;94977.81;;;24.30;99.86
12793;BME280;6460;42.684;23.260;2023-06-22T13:20:30;94982.47;;;24.45;96.51
12793;BME280;6460;42.684;23.260;2023-06-22T13:22:57;94977.72;;;24.74;92.01
12793;BME280;6460;42.684;23.260;2023-06-22T13:25:25;94980.31;;;24.82;89.72
12793;BME280;6460;42.684;23.260;2023-06-22T13:27:53;94977.47;;;25.10;91.28
12793;BME280;6460;42.684;23.260;2023-06-22T13:30:20;94967.78;;;25.18;91.65
12793;BME280;6460;42.684;23.260;2023-06-22T13:32:47;94965.03;;;25.18;91.96
12793;BME280;6460;42.684;23.260;2023-06-22T13:35:14;94967.16;;;24.73;89.35
12793;BME280;6460;42.684;23.260;2023-06-22T13:37:41;94963.81;;;24.82;91.45
12793;BME280;6460;42.684;23.260;2023-06-22T13:40:09;94971.00;;;24.63;90.78
12793;BME280;6460;42.684;23.260;2023-06-22T13:42:38;94968.94;;;24.80;89.20
12793;BME280;6460;42.684;23.260;2023-06-22T13:45:07;94965.91;;;24.90;94.66
12793;BME280;6460;42.684;23.260;2023-06-22T13:47:34;94957.47;;;24.68;95.08
12793;BME280;6460;42.684;23.260;2023-06-22T13:50:01;94958.88;;;24.60;93.50
12793;BME280;6460;42.684;23.260;2023-06-22T13:52:28;94952.75;;;24.28;94.61
12793;BME280;6460;42.684;23.260;2023-06-22T13:54:55;94951.47;;;24.45;93.12
12793;BME280;6460;42.684;23.260;2023-06-22T13:57:23;94952.44;;;24.38;92.56
12793;BME280;6460;42.684;23.260;2023-06-22T13:59:51;94961.59;;;24.48;94.76
12793;BME280;6460;42.684;23.260;2023-06-22T14:02:18;94960.41;;;24.49;95.50
12793;BME280;6460;42.684;23.260;2023-06-22T14:04:45;94954.31;;;24.41;95.74
12793;BME280;6460;42.684;23.260;2023-06-22T14:07:13;94956.16;;;24.32;98.17
12793;BME280;6460;42.684;23.260;2023-06-22T14:09:40;94955.53;;;24.40;98.92
12793;BME280;6460;42.684;23.260;2023-06-22T14:12:08;94947.53;;;24.46;97.81
12793;BME280;6460;42.684;23.260;2023-06-22T14:14:35;94959.22;;;24.05;100.00
12793;BME280;6460;42.684;23.260;2023-06-22T14:17:04;94962.78;;;23.73;100.00
12793;BME280;6460;42.684;23.260;2023-06-22T14:19:32;94966.84;;;23.97;100.00
12793;BME280;6460;42.684;23.260;2023-06-22T14:21:59;94957.50;;;23.95;100.00
12793;BME280;6460;42.684;23.260;2023-06-22T14:24:26;94969.09;;;24.18;99.91
12793;BME280;6460;42.684;23.260;2023-06-22T14:26:53;94970.28;;;24.46;98.66
12793;BME280;6460;42.684;23.260;2023-06-22T14:29:21;94977.59;;;24.65;99.23
12793;BME280;6460;42.684;23.260;2023-06-22T14:31:49;94974.97;;;24.74;98.93
12793;BME280;6460;42.684;23.260;2023-06-22T14:34:17;94976.22;;;24.86;98.38
12793;BME280;6460;42.684;23.260;2023-06-22T14:36:44;94984.19;;;24.97;99.40
12793;BME280;6460;42.684;23.260;2023-06-22T14:39:11;94978.91;;;25.02;100.00
12793;BME280;6460;42.684;23.260;2023-06-22T14:41:38;94974.94;;;25.16;100.00
12793;BME280;6460;42.684;23.260;2023-06-22T14:44:06;94975.84;;;25.25;100.00
12793;BME280;6460;42.684;23.260;2023-06-22T14:46:33;94973.41;;;25.27;100.00
12793;BME280;6460;42.684;23.260;2023-06-22T14:49:00;94982.88;;;25.39;100.00
12793;BME280;6460;42.684;23.260;2023-06-22T14:51:29;94976.50;;;25.30;100.00
12793;BME280;6460;42.684;23.260;2023-06-22T14:53:56;94980.47;;;25.28;100.00
12793;BME280;6460;42.684;23.260;2023-06-22T14:56:23;94977.38;;;25.26;100.00
12793;BME280;6460;42.684;23.260;2023-06-22T14:58:53;94966.47;;;25.48;99.98
12793;BME280;6460;42.684;23.260;2023-06-22T15:01:20;94969.31;;;24.82;100.00
12793;BME280;6460;42.684;23.260;2023-06-22T15:03:47;94959.78;;;24.70;100.00
12793;BME280;6460;42.684;23.260;2023-06-22T15:06:15;94952.59;;;24.89;100.00
12793;BME280;6460;42.684;23.260;2023-06-22T15:08:44;94944.47;;;24.98;100.00
12793;BME280;6460;42.684;23.260;2023-06-22T15:11:11;94943.38;;;24.95;100.00
12793;BME280;6460;42.684;23.260;2023-06-22T15:13:39;94940.34;;;24.77;100.00
12793;BME280;6460;42.684;23.260;2023-06-22T15:16:06;94933.91;;;24.55;100.00
12793;BME280;6460;42.684;23.260;2023-06-22T15:18:34;94932.88;;;24.36;100.00
12793;BME280;6460;42.684;23.260;2023-06-22T15:21:02;94921.94;;;24.61;100.00
12793;BME280;6460;42.684;23.260;2023-06-22T15:23:30;94915.41;;;25.09;100.00
12793;BME280;6460;42.684;23.260;2023-06-22T15:26:01;94916.41;;;25.15;100.00
12793;BME280;6460;42.684;23.260;2023-06-22T15:28:28;94918.38;;;25.15;100.00
12793;BME280;6460;42.684;23.260;2023-06-22T15:30:58;94921.69;;;25.22;100.00
12793;BME280;6460;42.684;23.260;2023-06-22T15:33:25;94924.59;;;25.78;98.67
12793;BME280;6460;42.684;23.260;2023-06-22T15:35:52;94920.91;;;25.94;94.73
12793;BME280;6460;42.684;23.260;2023-06-22T15:38:21;94940.16;;;25.60;93.14
12793;BME280;6460;42.684;23.260;2023-06-22T15:40:48;94925.97;;;25.96;92.96
12793;BME280;6460;42.684;23.260;2023-06-22T15:43:17;94930.06;;;26.69;89.76
12793;BME280;6460;42.684;23.260;2023-06-22T15:45:45;94935.59;;;26.69;85.03
12793;BME280;6460;42.684;23.260;2023-06-22T15:48:13;94932.50;;;27.50;80.23
12793;BME280;6460;42.684;23.260;2023-06-22T15:50:40;94935.59;;;27.79;77.91
12793;BME280;6460;42.684;23.260;2023-06-22T15:53:08;94929.16;;;27.82;78.01
12793;BME280;6460;42.684;23.260;2023-06-22T15:55:35;94936.34;;;27.53;79.31
12793;BME280;6460;42.684;23.260;2023-06-22T15:58:02;94928.06;;;27.53;79.84
12793;BME280;6460;42.684;23.260;2023-06-22T16:00:31;94935.91;;;27.23;79.81
12793;BME280;6460;42.684;23.260;2023-06-22T16:02:58;94936.09;;;26.98;77.94
12793;BME280;6460;42.684;23.260;2023-06-22T16:05:25;94942.66;;;26.92;77.71
12793;BME280;6460;42.684;23.260;2023-06-22T16:07:55;94939.50;;;26.80;78.90
12793;BME280;6460;42.684;23.260;2023-06-22T16:10:23;94950.59;;;26.68;78.71
12793;BME280;6460;42.684;23.260;2023-06-22T16:12:50;94953.16;;;26.41;79.09
12793;BME280;6460;42.684;23.260;2023-06-22T16:15:17;94956.50;;;26.57;77.66
12793;BME280;6460;42.684;23.260;2023-06-22T16:17:46;94950.47;;;26.50;77.16
12793;BME280;6460;42.684;23.260;2023-06-22T16:20:13;94945.59;;;26.54;75.84
12793;BME280;6460;42.684;23.260;2023-06-22T16:22:42;94948.81;;;26.52;75.92
12793;BME280;6460;42.684;23.260;2023-06-22T16:25:09;94956.63;;;26.54;75.98
12793;BME280;6460;42.684;23.260;2023-06-22T16:27:37;94948.13;;;26.61;75.43
12793;BME280;6460;42.684;23.260;2023-06-22T16:30:05;94938.41;;;26.78;75.59
12793;BME280;6460;42.684;23.260;2023-06-22T16:32:33;94937.00;;;26.52;78.24
12793;BME280;6460;42.684;23.260;2023-06-22T16:35:02;94939.97;;;26.36;79.40
12793;BME280;6460;42.684;23.260;2023-06-22T16:37:29;94936.19;;;26.64;79.50
12793;BME280;6460;42.684;23.260;2023-06-22T16:39:57;94937.00;;;26.73;78.27
12793;BME280;6460;42.684;23.260;2023-06-22T16:42:24;94937.78;;;26.96;78.94
12793;BME280;6460;42.684;23.260;2023-06-22T16:44:51;94942.69;;;27.01;78.92
12793;BME280;6460;42.684;23.260;2023-06-22T16:47:18;94934.41;;;27.01;77.95
12793;BME280;6460;42.684;23.260;2023-06-22T16:49:45;94938.91;;;27.16;81.74
12793;BME280;6460;42.684;23.260;2023-06-22T16:52:13;94933.28;;;26.89;82.99
12793;BME280;6460;42.684;23.260;2023-06-22T16:54:41;94932.47;;;27.10;84.02
12793;BME280;6460;42.684;23.260;2023-06-22T16:57:09;94937.72;;;27.17;85.93
12793;BME280;6460;42.684;23.260;2023-06-22T16:59:36;94935.13;;;27.23;87.14
12793;BME280;6460;42.684;23.260;2023-06-22T17:02:04;94935.84;;;27.14;88.06
12793;BME280;6460;42.684;23.260;2023-06-22T17:04:33;94934.00;;;27.11;86.67
12793;BME280;6460;42.684;23.260;2023-06-22T17:07:06;94932.19;;;27.17;85.09
12793;BME280;6460;42.684;23.260;2023-06-22T17:09:37;94934.34;;;27.22;84.51
12793;BME280;6460;42.684;23.260;2023-06-22T17:12:07;94935.53;;;27.12;86.12
12793;BME280;6460;42.684;23.260;2023-06-22T17:14:38;94946.09;;;27.05;82.32
12793;BME280;6460;42.684;23.260;2023-06-22T17:17:07;94942.34;;;26.90;82.90
12793;BME280;6460;42.684;23.260;2023-06-22T17:19:35;94940.72;;;26.79;86.61
12793;BME280;6460;42.684;23.260;2023-06-22T17:22:03;94939.28;;;26.75;87.77
12793;BME280;6460;42.684;23.260;2023-06-22T17:24:30;94936.53;;;26.75;89.00
12793;BME280;6460;42.684;23.260;2023-06-22T17:26:58;94936.22;;;26.73;90.09
12793;BME280;6460;42.684;23.260;2023-06-22T17:29:28;94934.56;;;26.75;89.70
12793;BME280;6460;42.684;23.260;2023-06-22T17:31:58;94930.06;;;26.69;90.02
12793;BME280;6460;42.684;23.260;2023-06-22T17:34:27;94923.78;;;26.68;89.65
12793;BME280;6460;42.684;23.260;2023-06-22T17:36:56;94920.53;;;26.61;89.93
12793;BME280;6460;42.684;23.260;2023-06-22T17:39:25;94928.16;;;26.57;88.85
12793;BME280;6460;42.684;23.260;2023-06-22T17:41:53;94925.59;;;26.41;88.75
12793;BME280;6460;42.684;23.260;2023-06-22T17:44:24;94922.59;;;26.48;86.93
12793;BME280;6460;42.684;23.260;2023-06-22T17:46:54;94921.63;;;26.42;84.83
12793;BME280;6460;42.684;23.260;2023-06-22T17:49:26;94922.97;;;26.37;85.07
12793;BME280;6460;42.684;23.260;2023-06-22T17:51:53;94928.44;;;26.15;92.58
12793;BME280;6460;42.684;23.260;2023-06-22T17:54:21;94925.47;;;26.22;92.31
12793;BME280;6460;42.684;23.260;2023-06-22T17:56:48;94928.72;;;25.96;93.75
12793;BME280;6460;42.684;23.260;2023-06-22T17:59:17;94928.94;;;26.01;93.56
12793;BME280;6460;42.684;23.260;2023-06-22T18:01:47;94942.50;;;25.36;99.06
12793;BME280;6460;42.684;23.260;2023-06-22T18:04:15;94944.78;;;25.38;97.82
12793;BME280;6460;42.684;23.260;2023-06-22T18:06:44;94943.47;;;25.30;100.00
12793;BME280;6460;42.684;23.260;2023-06-22T18:09:12;94945.25;;;25.23;100.00
12793;BME280;6460;42.684;23.260;2023-06-22T18:11:44;94945.44;;;24.91;100.00
12793;BME280;6460;42.684;23.260;2023-06-22T18:14:14;94941.63;;;25.01;100.00
12793;BME280;6460;42.684;23.260;2023-06-22T18:16:48;94942.50;;;25.11;100.00
12793;BME280;6460;42.684;23.260;2023-06-22T18:19:17;94940.63;;;25.20;100.00
12793;BME280;6460;42.684;23.260;2023-06-22T18:21:45;94951.19;;;25.09;100.00
12793;BME280;6460;42.684;23.260;2023-06-22T18:24:14;94939.97;;;25.04;100.00
12793;BME280;6460;42.684;23.260;2023-06-22T18:26:43;94949.34;;;24.07;100.00
12793;BME280;6460;42.684;23.260;2023-06-22T18:29:11;94949.97;;;24.15;100.00
12793;BME280;6460;42.684;23.260;2023-06-22T18:31:39;94950.59;;;24.48;100.00
12793;BME280;6460;42.684;23.260;2023-06-22T18:34:09;94945.88;;;24.48;100.00
12793;BME280;6460;42.684;23.260;2023-06-22T18:36:41;94950.22;;;24.62;100.00
12793;BME280;6460;42.684;23.260;2023-06-22T18:39:10;94952.41;;;24.26;100.00